createdAt,value
2019-06-20T00:05:58.037Z,2.50
2019-06-20T00:34:03.273Z,3.30
2019-06-20T00:36:34.554Z,3.10
2019-06-20T00:39:22.521Z,3.03
2019-06-20T00:42:03.517Z,3.20
2019-06-20T00:47:36.533Z,3.07
2019-06-20T00:50:05.893Z,2.80
2019-06-20T00:52:34.601Z,3.20
2019-06-20T00:55:08.348Z,2.97
2019-06-20T00:57:37.234Z,3.70
2019-06-20T01:00:06.265Z,3.60
2019-06-20T01:02:34.905Z,3.30
2019-06-20T01:05:03.598Z,3.17
2019-06-20T01:07:39.056Z,3.50
2019-06-20T01:10:07.949Z,3.17
2019-06-20T01:12:36.525Z,3.07
2019-06-20T01:15:06.051Z,3.10
2019-06-20T01:17:34.668Z,3.10
2019-06-20T01:20:03.609Z,3.37
2019-06-20T01:22:32.282Z,2.30
2019-06-20T01:25:01.014Z,2.70
2019-06-20T01:27:29.775Z,2.90
2019-06-20T01:39:32.554Z,2.37
2019-06-20T01:42:01.549Z,2.30
2019-06-20T01:44:33.483Z,2.30
2019-06-20T01:47:02.205Z,2.03
2019-06-20T01:49:31.016Z,2.50
2019-06-20T01:52:03.525Z,2.40
2019-06-20T01:55:35.293Z,2.43
2019-06-20T01:58:16.659Z,2.80
2019-06-20T02:00:49.544Z,2.70
2019-06-20T02:03:24.418Z,3.10
2019-06-20T02:05:53.080Z,2.60
2019-06-20T02:12:27.992Z,2.40
2019-06-20T02:14:59.165Z,2.47
2019-06-20T02:17:39.675Z,2.60
2019-06-20T02:20:11.294Z,2.73
2019-06-20T02:22:41.684Z,2.63
2019-06-20T02:25:10.497Z,2.83
2019-06-20T02:27:54.779Z,2.70
2019-06-20T02:30:31.111Z,2.90
2019-06-20T02:33:12.154Z,2.63
2019-06-20T02:35:39.418Z,2.73
2019-06-20T02:38:08.225Z,2.60
2019-06-20T02:40:36.962Z,2.53
2019-06-20T02:43:05.678Z,2.77
2019-06-20T02:45:37.894Z,3.07
2019-06-20T02:48:06.591Z,2.70
2019-06-20T02:50:35.406Z,2.90
2019-06-20T02:53:04.218Z,3.03
2019-06-20T02:55:33.007Z,2.90
2019-06-20T02:58:01.871Z,3.30
2019-06-20T03:00:43.098Z,2.90
2019-06-20T03:03:11.737Z,3.00
2019-06-20T03:05:40.327Z,2.90
2019-06-20T03:08:08.973Z,2.73
2019-06-20T03:10:38.255Z,3.00
2019-06-20T03:13:10.067Z,3.10
2019-06-20T03:15:41.855Z,3.00
2019-06-20T03:18:13.767Z,3.13
2019-06-20T03:20:44.623Z,3.10
2019-06-20T03:23:16.049Z,3.23
2019-06-20T03:25:49.457Z,3.23
2019-06-20T03:28:18.312Z,3.33
2019-06-20T03:30:47.703Z,3.37
2019-06-20T03:33:16.376Z,3.37
2019-06-20T03:35:45.100Z,3.30
2019-06-20T03:38:13.680Z,3.30
2019-06-20T03:40:42.235Z,3.47
2019-06-20T03:43:10.890Z,3.37
2019-06-20T03:45:39.670Z,3.40
2019-06-20T03:48:08.390Z,3.20
2019-06-20T03:50:37.035Z,3.20
2019-06-20T03:53:05.862Z,3.00
2019-06-20T03:55:34.546Z,3.00
2019-06-20T03:58:03.213Z,3.03
2019-06-20T04:00:33.062Z,2.97
2019-06-20T04:03:01.812Z,3.40
2019-06-20T04:05:30.769Z,3.03
2019-06-20T04:07:59.447Z,3.20
2019-06-20T04:10:28.113Z,2.87
2019-06-20T04:12:56.764Z,3.17
2019-06-20T04:15:25.582Z,3.37
2019-06-20T04:17:54.266Z,3.67
2019-06-20T04:20:22.878Z,3.50
2019-06-20T04:22:51.556Z,3.20
2019-06-20T04:25:20.203Z,3.73
2019-06-20T04:27:49.649Z,3.20
2019-06-20T04:30:18.291Z,3.23
2019-06-20T04:32:46.874Z,3.60
2019-06-20T04:35:15.530Z,3.33
2019-06-20T04:37:44.200Z,3.47
2019-06-20T04:40:12.914Z,3.80
2019-06-20T04:42:41.612Z,3.10
2019-06-20T04:45:35.324Z,3.30
2019-06-20T04:47:59.940Z,6.37
2019-06-20T04:50:28.587Z,3.43
2019-06-20T04:52:57.401Z,4.50
2019-06-20T04:55:26.068Z,3.50
2019-06-20T04:57:54.820Z,3.60
2019-06-20T05:00:23.745Z,3.10
2019-06-20T05:02:52.400Z,5.57
2019-06-20T05:05:21.088Z,3.70
2019-06-20T05:31:55.939Z,3.33
2019-06-20T05:34:24.609Z,3.40
2019-06-20T05:36:53.376Z,6.23
2019-06-20T05:39:22.098Z,3.70
2019-06-20T05:41:50.798Z,3.47
2019-06-20T05:44:21.360Z,3.07
2019-06-20T05:46:50.025Z,3.57
2019-06-20T05:49:21.386Z,3.33
2019-06-20T05:51:49.864Z,3.83
2019-06-20T05:54:29.053Z,3.40
2019-06-20T05:56:58.114Z,4.20
2019-06-20T05:59:26.794Z,4.07
2019-06-20T06:01:56.676Z,3.87
2019-06-20T06:04:25.496Z,3.40
2019-06-20T06:06:54.340Z,4.57
2019-06-20T06:09:25.395Z,3.40
2019-06-20T06:11:54.661Z,3.80
2019-06-20T06:14:23.521Z,2.90
2019-06-20T06:16:57.182Z,3.73
2019-06-20T06:19:26.031Z,6.00
2019-06-20T06:21:54.920Z,3.70
2019-06-20T06:24:23.667Z,4.30
2019-06-20T06:26:52.298Z,4.23
2019-06-20T06:29:46.696Z,4.17
2019-06-20T06:32:15.352Z,4.73
2019-06-20T06:34:44.080Z,4.20
2019-06-20T06:37:12.854Z,4.13
2019-06-20T06:39:43.519Z,5.73
2019-06-20T06:42:11.984Z,5.00
2019-06-20T06:44:40.701Z,4.20
2019-06-20T06:47:10.190Z,5.00
2019-06-20T06:49:39.100Z,5.37
2019-06-20T06:52:07.981Z,4.67
2019-06-20T06:54:37.215Z,5.30
2019-06-20T06:57:06.568Z,5.03
2019-06-20T06:59:35.372Z,4.83
2019-06-20T07:02:04.060Z,5.27
2019-06-20T07:04:32.773Z,4.90
2019-06-20T07:07:01.779Z,4.70
2019-06-20T07:09:30.484Z,4.30
2019-06-20T07:11:59.147Z,4.40
2019-06-20T07:14:27.930Z,4.60
2019-06-20T07:17:00.613Z,4.97
2019-06-20T07:19:35.411Z,5.17
2019-06-20T07:22:04.115Z,5.00
2019-06-20T07:24:32.828Z,4.70
2019-06-20T07:27:01.743Z,3.97
2019-06-20T07:29:30.411Z,4.20
2019-06-20T07:32:00.556Z,4.17
2019-06-20T07:34:29.315Z,4.13
2019-06-20T07:36:58.077Z,3.90
2019-06-20T07:39:26.856Z,4.00
2019-06-20T07:41:55.545Z,3.90
2019-06-20T07:44:24.280Z,7.30
2019-06-20T07:46:52.952Z,4.07
2019-06-20T07:49:21.553Z,4.00
2019-06-20T07:51:50.673Z,3.80
2019-06-20T07:54:19.484Z,4.70
2019-06-20T07:56:48.467Z,3.60
2019-06-20T07:59:17.059Z,4.20
2019-06-20T08:01:46.711Z,3.93
2019-06-20T08:04:15.535Z,3.67
2019-06-20T08:06:44.354Z,3.70
2019-06-20T08:09:13.083Z,3.73
2019-06-20T08:11:44.797Z,6.20
2019-06-20T08:14:13.742Z,4.63
2019-06-20T08:43:55.357Z,3.77
2019-06-20T08:47:02.243Z,3.60
2019-06-20T08:49:49.713Z,3.57
2019-06-20T10:30:33.233Z,3.03
2019-06-20T10:33:50.915Z,3.50
2019-06-20T10:36:20.208Z,3.10
2019-06-20T10:38:50.349Z,3.50
2019-06-20T10:41:19.836Z,3.70
2019-06-20T10:43:49.572Z,3.40
2019-06-20T10:46:29.184Z,3.50
2019-06-20T10:48:58.471Z,3.80
2019-06-20T10:51:47.587Z,3.37
2019-06-20T10:54:16.926Z,3.60
2019-06-20T10:56:47.202Z,3.10
2019-06-20T10:59:16.584Z,3.17
2019-06-20T11:01:46.619Z,3.30
2019-06-20T11:04:16.249Z,3.50
2019-06-20T11:06:45.749Z,3.00
2019-06-20T11:09:14.891Z,3.53
2019-06-20T11:11:44.779Z,3.73
2019-06-20T11:14:14.421Z,5.27
2019-06-20T11:16:45.125Z,45.90
2019-06-20T11:19:14.527Z,2.93
2019-06-20T11:21:53.135Z,2.97
2019-06-20T11:24:22.683Z,3.30
2019-06-20T11:26:52.437Z,2.83
2019-06-20T11:29:22.106Z,3.40
2019-06-20T11:31:51.747Z,3.03
2019-06-20T11:34:20.894Z,3.40
2019-06-20T11:36:52.018Z,3.30
2019-06-20T11:39:21.791Z,3.57
2019-06-20T11:41:51.249Z,2.93
2019-06-20T11:44:21.668Z,2.70
2019-06-20T11:46:51.298Z,2.60
2019-06-20T11:49:28.610Z,2.67
2019-06-20T11:51:58.084Z,2.67
2019-06-20T11:54:27.531Z,2.57
2019-06-20T11:56:57.028Z,2.73
2019-06-20T11:59:26.962Z,2.47
2019-06-20T12:01:56.475Z,2.70
2019-06-20T12:04:26.089Z,2.57
2019-06-20T12:06:55.368Z,2.43
2019-06-20T12:10:31.790Z,2.70
2019-06-20T12:12:41.382Z,2.80
2019-06-20T12:15:15.018Z,2.50
2019-06-20T12:17:45.350Z,2.60
2019-06-20T12:20:19.991Z,2.40
2019-06-20T12:22:51.497Z,2.43
2019-06-20T12:25:21.684Z,2.50
2019-06-20T12:27:52.856Z,2.60
2019-06-20T12:30:34.185Z,2.40
2019-06-20T12:33:13.930Z,2.43
2019-06-20T12:36:07.995Z,5.53
2019-06-20T12:38:48.383Z,2.40
2019-06-20T12:41:29.970Z,2.50
2019-06-20T12:44:02.860Z,2.23
2019-06-20T12:46:40.718Z,2.30
2019-06-20T12:49:15.180Z,2.37
2019-06-20T12:51:54.387Z,2.20
2019-06-20T12:54:30.149Z,2.27
2019-06-20T12:57:01.987Z,2.53
2019-06-20T12:59:48.393Z,2.40
2019-06-20T13:02:20.801Z,2.40
2019-06-20T13:04:55.715Z,2.23
2019-06-20T13:07:28.334Z,2.83
2019-06-20T13:10:33.839Z,2.40
2019-06-20T13:13:07.856Z,2.50
2019-06-20T13:15:53.752Z,2.60
2019-06-20T13:18:39.680Z,2.70
2019-06-20T13:21:27.597Z,2.70
2019-06-20T13:24:02.794Z,2.50
2019-06-20T13:26:48.912Z,3.00
2019-06-20T13:29:47.256Z,2.80
2019-06-20T13:32:24.447Z,2.60
2019-06-20T13:34:57.306Z,2.60
2019-06-20T13:37:30.995Z,3.07
2019-06-20T13:40:02.538Z,2.77
2019-06-20T13:42:33.573Z,2.67
2019-06-20T13:45:02.863Z,2.73
2019-06-20T13:47:35.177Z,2.80
2019-06-20T13:50:14.959Z,2.77
2019-06-20T13:52:51.052Z,3.00
2019-06-20T13:55:28.614Z,3.07
2019-06-20T13:58:01.923Z,3.07
2019-06-20T14:00:32.465Z,3.43
2019-06-20T14:03:29.829Z,3.00
2019-06-20T14:06:00.268Z,3.10
2019-06-20T14:08:29.364Z,3.30
2019-06-20T14:10:58.417Z,3.30
2019-06-20T14:13:31.243Z,2.97
2019-06-20T14:15:59.942Z,3.37
2019-06-20T14:18:28.880Z,3.80
2019-06-20T14:20:58.000Z,2.90
2019-06-20T14:23:29.419Z,2.40
2019-06-20T14:25:58.410Z,2.43
2019-06-20T14:28:27.461Z,2.30
2019-06-20T14:31:00.535Z,1.80
2019-06-20T14:33:31.846Z,2.23
2019-06-20T14:36:24.529Z,2.60
2019-06-20T14:38:57.790Z,3.03
2019-06-20T14:41:27.601Z,2.60
2019-06-20T14:44:12.800Z,3.20
2019-06-20T14:46:42.244Z,2.93
2019-06-20T14:49:13.398Z,3.10
2019-06-20T14:51:43.569Z,3.30
2019-06-20T14:54:19.765Z,3.00
2019-06-20T14:56:50.161Z,3.60
2019-06-20T14:59:19.038Z,3.40
2019-06-20T15:01:48.036Z,3.50
2019-06-20T15:04:16.859Z,3.53
2019-06-20T15:06:46.692Z,3.60
2019-06-20T15:09:16.358Z,3.30
2019-06-20T15:11:46.490Z,3.30
2019-06-20T15:14:30.173Z,3.20
2019-06-20T15:17:01.595Z,3.17
2019-06-20T15:19:32.326Z,3.20
2019-06-20T15:22:09.439Z,3.37
2019-06-20T15:24:51.727Z,3.73
2019-06-20T15:27:21.417Z,3.80
2019-06-20T15:29:58.367Z,3.93
2019-06-20T15:32:28.169Z,3.60
2019-06-20T15:34:57.837Z,3.57
2019-06-20T15:37:44.349Z,3.37
2019-06-20T15:40:20.557Z,3.10
2019-06-20T15:42:56.984Z,3.10
2019-06-20T15:45:32.362Z,3.20
2019-06-20T15:48:07.327Z,3.47
2019-06-20T15:50:50.014Z,3.33
2019-06-20T15:57:56.681Z,3.33
2019-06-20T16:00:35.074Z,3.00
2019-06-20T16:03:46.766Z,3.47
2019-06-20T16:09:44.508Z,3.27
2019-06-20T16:13:00.112Z,3.00
2019-06-20T16:15:39.408Z,3.30
2019-06-20T16:18:13.689Z,3.77
2019-06-20T16:20:56.267Z,3.70
2019-06-20T16:23:35.831Z,3.63
2019-06-20T16:26:07.880Z,2.97
2019-06-20T16:28:40.667Z,2.90
2019-06-20T16:31:25.880Z,2.73
2019-06-20T16:33:48.453Z,3.20
2019-06-20T16:36:22.414Z,2.80
2019-06-20T16:38:55.271Z,2.67
2019-06-20T16:41:24.716Z,3.20
2019-06-20T16:43:55.876Z,3.20
2019-06-20T16:46:24.976Z,3.20
2019-06-20T16:48:54.261Z,2.93
2019-06-20T16:51:38.617Z,3.30
2019-06-20T16:54:09.233Z,3.77
2019-06-20T16:56:38.154Z,3.47
2019-06-20T16:59:07.221Z,2.87
2019-06-20T17:01:36.215Z,3.03
2019-06-20T17:04:08.805Z,3.10
2019-06-20T17:06:45.320Z,3.40
2019-06-20T17:09:20.557Z,2.97
2019-06-20T17:11:46.378Z,3.00
2019-06-20T17:14:18.043Z,2.80
2019-06-20T17:16:45.790Z,3.10
2019-06-20T17:19:14.576Z,3.50
2019-06-20T17:22:15.966Z,3.37
2019-06-20T17:24:54.103Z,3.23
2019-06-20T17:27:33.466Z,3.33
2019-06-20T17:30:06.112Z,3.93
2019-06-20T17:32:34.699Z,3.00
2019-06-20T17:35:20.043Z,2.97
2019-06-20T17:44:35.229Z,3.43
2019-06-20T17:47:45.944Z,3.47
2019-06-20T17:50:16.272Z,2.97
2019-06-20T17:52:44.949Z,3.10
2019-06-20T17:55:14.211Z,3.40
2019-06-20T17:57:53.481Z,3.50
2019-06-20T18:00:14.759Z,3.90
2019-06-20T18:02:43.372Z,3.43
2019-06-20T18:05:12.633Z,2.93
2019-06-20T18:07:43.956Z,3.10
2019-06-20T18:10:12.854Z,3.27
2019-06-20T18:12:41.569Z,3.27
2019-06-20T18:15:11.629Z,3.70
2019-06-20T18:17:40.273Z,3.00
2019-06-20T18:20:09.328Z,3.47
2019-06-20T18:22:37.966Z,4.00
2019-06-20T18:25:07.131Z,3.67
2019-06-20T18:27:35.715Z,2.90
2019-06-20T18:30:05.673Z,3.50
2019-06-20T18:32:34.327Z,4.40
2019-06-20T18:35:07.318Z,3.50
2019-06-20T18:37:35.639Z,3.37
2019-06-20T18:40:05.693Z,4.87
2019-06-20T18:42:34.632Z,3.57
2019-06-20T18:45:03.396Z,3.10
2019-06-20T18:47:32.465Z,3.27
2019-06-20T18:50:01.912Z,3.27
2019-06-20T18:52:30.483Z,3.13
2019-06-20T18:54:59.204Z,7.90
2019-06-20T18:57:28.117Z,4.00
2019-06-20T18:59:56.623Z,3.43
2019-06-20T19:02:25.367Z,3.90
2019-06-20T19:04:53.924Z,4.70
2019-06-20T19:07:22.540Z,4.57
2019-06-20T19:09:51.292Z,4.80
2019-06-20T19:12:19.923Z,4.10
2019-06-20T19:14:48.522Z,3.60
2019-06-20T19:17:17.163Z,3.50
2019-06-20T19:19:45.699Z,3.13
2019-06-20T19:22:14.279Z,3.53
2019-06-20T19:24:42.863Z,3.70
2019-06-20T19:27:11.965Z,3.87
2019-06-20T19:29:40.819Z,4.20
2019-06-20T19:32:09.545Z,3.47
2019-06-20T19:34:38.290Z,4.13
2019-06-20T19:37:07.244Z,4.07
2019-06-20T19:39:36.083Z,3.80
2019-06-20T19:42:04.867Z,4.57
2019-06-20T19:44:33.468Z,4.40
2019-06-20T19:47:02.109Z,4.90
2019-06-20T19:49:31.722Z,4.30
2019-06-20T19:52:00.381Z,4.97
2019-06-20T19:54:28.998Z,4.63
2019-06-20T19:56:57.958Z,4.10
2019-06-20T19:59:26.549Z,4.00
2019-06-20T20:01:55.579Z,4.10
2019-06-20T20:04:24.495Z,37.17
2019-06-20T20:07:12.905Z,12.57
2019-06-20T20:12:50.904Z,4.30
2019-06-20T20:15:21.045Z,4.40
2019-06-20T20:17:49.852Z,4.60
2019-06-20T20:20:21.380Z,4.67
2019-06-20T20:22:50.504Z,4.70
2019-06-20T20:25:20.686Z,4.57
2019-06-20T20:27:49.873Z,5.10
2019-06-20T20:30:18.613Z,4.70
2019-06-20T20:32:47.220Z,4.40
2019-06-20T20:35:15.857Z,4.13
2019-06-20T20:37:47.766Z,4.10
2019-06-20T20:40:24.867Z,4.30
2019-06-20T20:42:59.261Z,4.40
2019-06-20T20:46:02.529Z,4.30
2019-06-20T20:52:01.572Z,4.73
2019-06-20T20:54:27.658Z,4.70
2019-06-20T20:56:56.812Z,5.07
2019-06-20T20:59:30.112Z,4.60
2019-06-20T21:02:08.987Z,5.30
2019-06-20T21:04:57.533Z,5.00
2019-06-20T21:07:42.633Z,4.77
2019-06-20T21:10:13.418Z,10.47
2019-06-20T21:12:42.146Z,6.17
2019-06-20T21:15:10.852Z,6.30
2019-06-20T21:17:39.694Z,5.17
2019-06-20T21:20:11.247Z,4.60
2019-06-20T21:22:49.358Z,5.10
2019-06-20T21:25:17.974Z,5.07
2019-06-20T21:27:46.569Z,5.43
2019-06-20T21:30:15.556Z,6.47
2019-06-20T21:32:44.383Z,6.33
2019-06-20T21:35:13.990Z,5.40
2019-06-20T21:37:42.558Z,6.17
2019-06-20T21:40:11.834Z,5.70
2019-06-20T21:42:41.094Z,5.53
2019-06-20T21:45:10.123Z,5.80
2019-06-20T21:47:38.870Z,6.07
2019-06-20T21:50:08.562Z,5.17
2019-06-20T21:52:37.274Z,5.20
2019-06-20T21:55:05.991Z,5.33
2019-06-20T21:57:34.638Z,5.63
2019-06-20T22:00:03.383Z,6.43
2019-06-20T22:02:32.162Z,6.33
2019-06-20T22:05:00.768Z,7.07
2019-06-20T22:07:29.467Z,7.73
2019-06-20T22:09:58.087Z,8.13
2019-06-20T22:12:26.636Z,9.13
2019-06-20T22:14:55.752Z,10.67
2019-06-20T22:17:25.435Z,9.07
2019-06-20T22:19:54.826Z,11.77
2019-06-20T22:22:24.063Z,13.53
2019-06-20T22:24:52.762Z,13.13
2019-06-20T22:27:21.432Z,15.60
2019-06-20T22:29:50.170Z,17.80
2019-06-20T22:32:18.914Z,17.47
2019-06-20T22:34:47.503Z,20.47
2019-06-20T22:37:16.353Z,16.33
2019-06-20T22:39:45.083Z,15.20
2019-06-20T22:42:13.917Z,17.33
2019-06-20T22:44:42.520Z,15.20
2019-06-20T22:47:11.293Z,15.67
2019-06-20T22:49:39.985Z,15.03
2019-06-20T22:52:08.857Z,15.30
2019-06-20T22:54:38.161Z,13.47
2019-06-20T22:57:06.772Z,14.80
2019-06-20T22:59:35.915Z,13.70
2019-06-20T23:02:04.960Z,15.50
2019-06-20T23:04:33.582Z,14.60
2019-06-20T23:07:02.254Z,15.57
2019-06-20T23:09:30.829Z,16.00
2019-06-20T23:12:01.660Z,15.00
2019-06-20T23:14:30.342Z,16.43
2019-06-20T23:16:59.047Z,18.03
2019-06-20T23:19:27.687Z,16.53
2019-06-20T23:21:56.633Z,18.53
2019-06-20T23:24:25.385Z,18.23
2019-06-20T23:26:53.970Z,18.50
2019-06-20T23:29:22.601Z,18.93
2019-06-20T23:31:51.566Z,16.57
2019-06-20T23:34:20.193Z,16.17
2019-06-20T23:36:48.896Z,14.87
2019-06-20T23:39:17.567Z,14.17
2019-06-20T23:41:46.201Z,17.10
2019-06-20T23:44:16.267Z,15.93
2019-06-20T23:46:44.935Z,20.40
2019-06-20T23:49:13.619Z,15.00
2019-06-20T23:51:47.942Z,14.53
2019-06-20T23:54:16.514Z,13.47
2019-06-20T23:56:45.137Z,12.93
2019-06-20T23:59:13.892Z,13.50
